CYUL/YUL METAR and TAF weather

Enter ICAO airport designator
Station Type Date Time Source
CYUL METAR 2020/02/27 15:00 UTC NOAA

CYUL 271500Z 05011KT 1 1/4SM -RASN BKN008 OVC012 01/M00 A2922 RMK SF6SC2 SLP899


Station Type Date Time Source
CYUL Decoded METAR 2020/02/27 15:00 UTC NOAA

Montreal / Pierre Elliot Trudeau International Airport, Que, Canada (CYUL) 45-28N 073-45W 36M
Feb 27, 2020 - 10:00 AM EST / 2020.02.27 1500 UTC
Wind: from the NE (050 degrees) at 13 MPH (11 KT):0
Visibility: 1 1/4 mile(s):0
Sky conditions: overcast
Weather: light rain, snow
Temperature: 33 F (1 C)
Windchill: 23 F (-5 C):1
Dew Point: 32 F (0 C)
Relative Humidity: 93%
Pressure (altimeter): 29.22 in. Hg (989 hPa)
ob: CYUL 271500Z 05011KT 1 1/4SM -RASN BKN008 OVC012 01/M00 A2922 RMK SF6SC2 SLP899
cycle: 15

Station Type Date Time Source
CYUL TAF 2020/02/27 15:42 UTC NOAA

TAF CYUL 271438Z 2715/2812 05015G25KT 2SM -RASN OVC012
TEMPO 2715/2716 1/2SM SN VV005
FM271600 04012G22KT 3/4SM -SN VV008
TEMPO 2716/2718 11/2SM -SN OVC012
BECMG 2716/2718 24020G35KT
FM271800 24020G35KT 11/2SM -SHSN OVC012 PROB30 2718/2722 3/4SM -SHSN
FM272200 24025G35KT 21/2SM -SHSN OVC025
FM280200 25020G30KT 6SM -SHSN OVC030
FM280600 25015G25KT P6SM -SHSN BKN030
RMK NXT FCST BY 271800Z

Example: see airport list